Time;durP1;ratioP1;P1;durP2;ratioP2;P2;SDS_P1;SDS_P2;PMS_P1;PMS_P2;Temp;Humidity;BMP_temperature;BMP_pressure;BME280_temperature;BME280_humidity;BME280_pressure;Samples;Min_cycle;Max_cycle;Signal;HPM_P1;HPM_P2
2021/12/27 00:01:41;;;;;;;1999.90;999.90;;;4.60;99.90;;;;;;4951433;28;20568;-66
2021/12/27 00:04:07;;;;;;;1999.90;999.90;;;4.60;99.90;;;;;;4951254;29;20246;-66
2021/12/27 00:06:33;;;;;;;1999.90;999.90;;;4.60;99.90;;;;;;4951420;29;20203;-65
2021/12/27 00:08:59;;;;;;;1999.90;999.90;;;4.60;99.90;;;;;;4951771;28;20320;-65
2021/12/27 00:11:24;;;;;;;1999.90;999.90;;;4.70;99.90;;;;;;4951404;28;20707;-66
2021/12/27 00:13:50;;;;;;;1999.90;999.90;;;4.60;99.90;;;;;;4951383;28;20168;-65
2021/12/27 00:16:16;;;;;;;1999.90;999.90;;;4.60;99.90;;;;;;4951078;29;20178;-66
2021/12/27 00:18:42;;;;;;;1999.90;999.90;;;4.60;99.90;;;;;;4951544;28;20258;-65
2021/12/27 00:21:08;;;;;;;1999.90;999.90;;;4.40;99.90;;;;;;4951296;28;20198;-65
2021/12/27 00:23:33;;;;;;;1999.90;999.90;;;4.50;99.90;;;;;;4950318;29;20806;-65
2021/12/27 00:25:59;;;;;;;1999.90;999.90;;;4.60;99.90;;;;;;4950897;29;20229;-66
2021/12/27 00:28:25;;;;;;;1999.90;999.90;;;4.60;99.90;;;;;;4950183;29;20460;-65
2021/12/27 00:30:51;;;;;;;1999.90;999.90;;;4.70;99.90;;;;;;4951042;28;20167;-66
2021/12/27 00:33:16;;;;;;;1999.90;999.90;;;4.60;99.90;;;;;;4951190;28;20253;-65
2021/12/27 00:35:42;;;;;;;1999.90;999.90;;;4.60;99.90;;;;;;4950817;29;20189;-65
2021/12/27 00:38:08;;;;;;;1999.90;999.90;;;4.60;99.90;;;;;;4951105;29;20179;-66
2021/12/27 00:40:35;;;;;;;1999.90;999.90;;;4.50;99.90;;;;;;4951068;28;20266;-66
2021/12/27 00:43:00;;;;;;;1999.90;999.90;;;4.50;99.90;;;;;;4951008;28;20518;-66
2021/12/27 00:45:26;;;;;;;1999.90;999.90;;;4.50;99.90;;;;;;4950679;29;20290;-65
2021/12/27 00:47:52;;;;;;;1999.90;999.90;;;4.40;99.90;;;;;;4951187;29;20258;-65
2021/12/27 00:50:18;;;;;;;1999.90;999.90;;;4.40;99.90;;;;;;4951175;28;20202;-66
2021/12/27 00:52:45;;;;;;;1999.90;999.90;;;4.40;99.90;;;;;;4950891;28;20739;-66
2021/12/27 00:55:13;;;;;;;1999.90;999.90;;;4.40;99.90;;;;;;4950796;28;20175;-65
2021/12/27 00:57:39;;;;;;;1999.90;999.90;;;4.40;99.90;;;;;;4950901;28;20190;-66
2021/12/27 01:00:08;;;;;;;1999.90;999.90;;;4.40;99.90;;;;;;4950897;28;20167;-67
2021/12/27 01:02:34;;;;;;;1999.90;999.90;;;4.30;99.90;;;;;;4950693;28;20203;-66
2021/12/27 01:05:00;;;;;;;1999.90;999.90;;;4.40;99.90;;;;;;4950466;28;20237;-65
2021/12/27 01:07:25;;;;;;;1999.90;999.90;;;4.50;99.90;;;;;;4950793;28;20254;-66
2021/12/27 01:15:07;;;;;;;1999.90;999.90;;;4.60;99.90;;;;;;4950424;28;20502;-65
2021/12/27 01:17:35;;;;;;;1999.90;999.90;;;4.70;99.90;;;;;;4950868;28;20770;-66
2021/12/27 01:20:01;;;;;;;1999.90;999.90;;;4.80;99.90;;;;;;4950737;28;20780;-65
2021/12/27 01:22:26;;;;;;;1999.90;999.90;;;4.80;99.90;;;;;;4950507;28;20321;-65
2021/12/27 01:24:52;;;;;;;1999.90;999.90;;;4.80;99.90;;;;;;4950224;29;20984;-66
2021/12/27 01:27:18;;;;;;;1999.90;999.90;;;4.90;99.90;;;;;;4950531;29;20187;-66
2021/12/27 01:29:43;;;;;;;1999.90;999.90;;;4.90;99.90;;;;;;4950526;29;20237;-65
2021/12/27 01:32:09;;;;;;;1999.90;999.90;;;4.90;99.90;;;;;;4950383;28;20572;-66
2021/12/27 01:34:34;;;;;;;1999.90;999.90;;;4.80;99.90;;;;;;4950238;29;20743;-65
2021/12/27 01:37:00;;;;;;;1999.90;999.90;;;4.80;99.90;;;;;;4950499;28;20254;-66
2021/12/27 01:39:26;;;;;;;1999.90;999.90;;;4.80;99.90;;;;;;4950455;28;20184;-66
2021/12/27 01:41:52;;;;;;;1999.90;999.90;;;4.80;99.90;;;;;;4953580;28;20227;-65
2021/12/27 01:44:18;;;;;;;1999.90;999.90;;;4.80;99.90;;;;;;4953587;28;20187;-66
2021/12/27 01:46:44;;;;;;;1999.90;999.90;;;4.80;99.90;;;;;;4953442;28;20207;-65
2021/12/27 01:49:09;;;;;;;1999.90;999.90;;;4.80;99.90;;;;;;4953597;28;20398;-65
2021/12/27 01:51:38;;;;;;;1999.90;999.90;;;4.70;99.90;;;;;;4953557;28;20245;-65
2021/12/27 01:54:04;;;;;;;1999.90;999.90;;;4.60;99.90;;;;;;4953156;28;20179;-66
2021/12/27 01:56:30;;;;;;;1999.90;999.90;;;4.60;99.90;;;;;;4953512;28;20183;-65
2021/12/27 01:58:58;;;;;;;1999.90;999.90;;;4.60;99.90;;;;;;4953403;28;20179;-65
2021/12/27 02:01:24;;;;;;;1999.90;999.90;;;4.60;99.90;;;;;;4953295;28;20219;-65
2021/12/27 02:03:53;;;;;;;1999.90;999.90;;;4.50;99.90;;;;;;4953315;28;20229;-65
2021/12/27 02:06:19;;;;;;;1999.90;999.90;;;4.60;99.90;;;;;;4953018;28;20896;-65
2021/12/27 02:08:45;;;;;;;1999.90;999.90;;;4.60;99.90;;;;;;4953242;28;20407;-65
2021/12/27 02:11:15;;;;;;;1999.90;999.90;;;4.60;99.90;;;;;;4953060;28;20462;-65
2021/12/27 02:13:43;;;;;;;1999.90;999.90;;;4.60;99.90;;;;;;4953426;28;20187;-65
2021/12/27 02:16:10;;;;;;;1999.90;999.90;;;4.70;99.90;;;;;;4952843;28;20172;-65
2021/12/27 02:18:37;;;;;;;1999.90;999.90;;;4.60;99.90;;;;;;4953180;28;20175;-65
2021/12/27 02:21:04;;;;;;;1999.90;999.90;;;4.60;99.90;;;;;;4953054;28;20193;-65
2021/12/27 02:23:30;;;;;;;1999.90;999.90;;;4.70;99.90;;;;;;4953041;28;20277;-64
2021/12/27 02:25:55;;;;;;;1999.90;999.90;;;4.70;99.90;;;;;;4952640;28;20501;-65
2021/12/27 02:28:21;;;;;;;1999.90;999.90;;;4.70;99.90;;;;;;4953119;28;20175;-65
2021/12/27 02:30:50;;;;;;;1999.90;999.90;;;4.80;99.90;;;;;;4952816;28;20939;-65
2021/12/27 02:33:16;;;;;;;1999.90;999.90;;;4.80;99.90;;;;;;4952970;28;20214;-65
2021/12/27 02:35:48;;;;;;;1999.90;999.90;;;4.70;99.90;;;;;;4952608;28;20182;-66
2021/12/27 02:38:18;;;;;;;1999.90;999.90;;;4.60;99.90;;;;;;4952889;28;20461;-65
2021/12/27 02:40:45;;;;;;;1999.90;999.90;;;4.70;99.90;;;;;;4952863;28;20526;-65
2021/12/27 02:43:14;;;;;;;1999.90;999.90;;;4.70;99.90;;;;;;4952821;29;20194;-65
2021/12/27 02:45:42;;;;;;;1999.90;999.90;;;4.80;99.90;;;;;;4952367;28;20447;-65
2021/12/27 02:48:09;;;;;;;1999.90;999.90;;;4.80;99.90;;;;;;4952674;28;20423;-65
2021/12/27 02:50:37;;;;;;;1999.90;999.90;;;4.80;99.90;;;;;;4952594;28;20407;-65
2021/12/27 02:53:04;;;;;;;1999.90;999.90;;;4.80;99.90;;;;;;4951796;28;20199;-65
2021/12/27 02:55:30;;;;;;;1999.90;999.90;;;4.80;99.90;;;;;;4952505;28;20180;-65
2021/12/27 02:57:56;;;;;;;1999.90;999.90;;;4.90;99.90;;;;;;4952590;28;20201;-65
2021/12/27 03:00:37;;;;;;;1999.90;999.90;;;4.90;99.90;;;;;;4952699;28;20415;-65
2021/12/27 03:03:03;;;;;;;1999.90;999.90;;;4.90;99.90;;;;;;4952416;28;20192;-64
2021/12/27 03:05:29;;;;;;;1999.90;999.90;;;4.90;99.90;;;;;;4952100;28;20454;-65
2021/12/27 03:07:57;;;;;;;1999.90;999.90;;;4.90;99.90;;;;;;4952394;28;20399;-66
2021/12/27 03:10:26;;;;;;;1999.90;999.90;;;5.00;99.90;;;;;;4952360;28;20407;-64
2021/12/27 03:12:53;;;;;;;1999.90;999.90;;;4.90;99.90;;;;;;4952187;28;20203;-65
2021/12/27 03:15:20;;;;;;;1999.90;999.90;;;4.80;99.90;;;;;;4951962;28;20501;-65
2021/12/27 03:17:47;;;;;;;1999.90;999.90;;;4.90;99.90;;;;;;4952298;28;20411;-66
2021/12/27 03:20:15;;;;;;;1999.90;999.90;;;5.00;99.90;;;;;;4952285;28;20183;-64
2021/12/27 03:22:41;;;;;;;1999.90;999.90;;;5.00;99.90;;;;;;4952273;28;20443;-65
2021/12/27 03:25:10;;;;;;;1999.90;999.90;;;5.00;99.90;;;;;;4951783;28;20545;-65
2021/12/27 03:27:36;;;;;;;1999.90;999.90;;;4.90;99.90;;;;;;4952046;28;20410;-65
2021/12/27 03:30:06;;;;;;;1999.90;999.90;;;4.90;99.90;;;;;;4952073;28;20402;-66
2021/12/27 03:32:33;;;;;;;1999.90;999.90;;;4.80;99.90;;;;;;4951916;28;20419;-66
2021/12/27 03:35:08;;;;;;;1999.90;999.90;;;4.90;99.90;;;;;;4951705;28;20179;-65
2021/12/27 03:37:34;;;;;;;1999.90;999.90;;;4.90;99.90;;;;;;4951965;28;20414;-65
2021/12/27 03:40:01;;;;;;;1999.90;999.90;;;4.90;99.90;;;;;;4951915;28;20410;-65
2021/12/27 03:42:26;;;;;;;1999.90;999.90;;;5.00;99.90;;;;;;4951739;28;20701;-64
2021/12/27 03:44:52;;;;;;;1999.90;999.90;;;5.00;99.90;;;;;;4951620;29;20175;-65
2021/12/27 03:47:17;;;;;;;1999.90;999.90;;;5.00;99.90;;;;;;4951751;29;20680;-65
2021/12/27 03:49:43;;;;;;;1999.90;999.90;;;5.10;99.90;;;;;;4951871;29;20262;-64
2021/12/27 03:52:09;;;;;;;1999.90;999.90;;;5.00;99.90;;;;;;4951731;28;20195;-65
2021/12/27 03:54:35;;;;;;;1999.90;999.90;;;5.00;99.90;;;;;;4951457;29;20293;-65
2021/12/27 03:57:01;;;;;;;1999.90;999.90;;;5.00;99.90;;;;;;4951576;29;20186;-65
2021/12/27 04:02:02;;;;;;;1999.90;999.90;;;5.00;99.90;;;;;;4951678;28;20790;-65
2021/12/27 04:04:28;;;;;;;1999.90;999.90;;;5.00;99.90;;;;;;4951062;28;20422;-65
2021/12/27 04:06:53;;;;;;;1999.90;999.90;;;4.90;99.90;;;;;;4951431;29;20211;-65
2021/12/27 04:09:19;;;;;;;1999.90;999.90;;;5.00;99.90;;;;;;4951463;29;20637;-65
2021/12/27 04:11:45;;;;;;;1999.90;999.90;;;5.00;99.90;;;;;;4951219;28;20210;-65
2021/12/27 04:14:10;;;;;;;1999.90;999.90;;;5.00;99.90;;;;;;4951124;29;20179;-65
2021/12/27 04:16:36;;;;;;;1999.90;999.90;;;5.10;99.90;;;;;;4951428;29;20194;-65
2021/12/27 04:19:02;;;;;;;1999.90;999.90;;;5.00;99.90;;;;;;4951377;29;20229;-65
2021/12/27 04:21:27;;;;;;;1999.90;999.90;;;5.00;99.90;;;;;;4951368;28;20199;-65
2021/12/27 04:23:53;;;;;;;1999.90;999.90;;;5.00;99.90;;;;;;4951259;29;20187;-65
2021/12/27 04:26:19;;;;;;;1999.90;999.90;;;5.00;99.90;;;;;;4950924;28;20737;-65
2021/12/27 04:28:45;;;;;;;1999.90;999.90;;;5.00;99.90;;;;;;4951506;28;20201;-65
2021/12/27 04:31:11;;;;;;;1999.90;999.90;;;5.10;99.90;;;;;;4951123;28;20438;-65
2021/12/27 04:33:37;;;;;;;1999.90;999.90;;;5.20;99.90;;;;;;4951335;28;20517;-65
2021/12/27 04:36:03;;;;;;;1999.90;999.90;;;5.20;99.90;;;;;;4950936;29;20501;-65
2021/12/27 04:38:29;;;;;;;1999.90;999.90;;;5.10;99.90;;;;;;4951207;28;20282;-65
2021/12/27 04:40:54;;;;;;;1999.90;999.90;;;5.10;99.90;;;;;;4951010;28;20421;-65
2021/12/27 04:43:23;;;;;;;1999.90;999.90;;;5.20;99.90;;;;;;4951064;29;20178;-65
2021/12/27 04:45:51;;;;;;;1999.90;999.90;;;5.10;99.90;;;;;;4950734;28;20210;-65
2021/12/27 04:48:19;;;;;;;1999.90;999.90;;;5.10;99.90;;;;;;4951143;28;20506;-66
2021/12/27 04:50:45;;;;;;;1999.90;999.90;;;5.20;99.90;;;;;;4951020;28;20781;-65
2021/12/27 04:53:10;;;;;;;1999.90;999.90;;;5.20;99.90;;;;;;4951335;29;20411;-66
2021/12/27 04:55:36;;;;;;;1999.90;999.90;;;5.20;99.90;;;;;;4950635;28;20175;-65
2021/12/27 04:58:04;;;;;;;1999.90;999.90;;;5.30;99.90;;;;;;4951258;28;20183;-65
2021/12/27 05:00:30;;;;;;;1999.90;999.90;;;5.30;99.90;;;;;;4951025;28;20251;-66
2021/12/27 05:02:58;;;;;;;1999.90;999.90;;;5.30;99.90;;;;;;4950809;28;20850;-66
2021/12/27 05:05:24;;;;;;;1999.90;999.90;;;5.30;99.90;;;;;;4950560;28;20463;-66
2021/12/27 05:07:50;;;;;;;1999.90;999.90;;;5.40;99.90;;;;;;4951571;28;20443;-66
2021/12/27 05:10:16;;;;;;;1999.90;999.90;;;5.40;99.90;;;;;;4950728;29;20439;-66
2021/12/27 05:12:42;;;;;;;1999.90;999.90;;;5.40;99.90;;;;;;4950610;28;20211;-65
2021/12/27 05:15:08;;;;;;;1999.90;999.90;;;5.40;99.90;;;;;;4951516;28;20410;-66
2021/12/27 05:17:34;;;;;;;1999.90;999.90;;;5.30;99.90;;;;;;4954078;28;20764;-65
2021/12/27 05:20:04;;;;;;;1999.90;999.90;;;5.30;99.90;;;;;;4954046;29;20825;-67
2021/12/27 05:22:31;;;;;;;1999.90;999.90;;;5.30;99.90;;;;;;4953895;28;20203;-66
2021/12/27 05:24:57;;;;;;;1999.90;999.90;;;5.30;99.90;;;;;;4953871;28;20541;-66
2021/12/27 05:27:23;;;;;;;1999.90;999.90;;;5.40;99.90;;;;;;4953986;28;20952;-65
2021/12/27 05:29:49;;;;;;;1999.90;999.90;;;5.40;99.90;;;;;;4953963;28;20411;-65
2021/12/27 05:32:14;;;;;;;1999.90;999.90;;;5.40;99.90;;;;;;4953746;28;20430;-65
2021/12/27 05:34:40;;;;;;;1999.90;999.90;;;5.40;99.90;;;;;;4953546;29;20410;-67
2021/12/27 05:37:06;;;;;;;1999.90;999.90;;;5.40;99.90;;;;;;4953736;29;20828;-65
2021/12/27 05:39:32;;;;;;;1999.90;999.90;;;5.30;99.90;;;;;;4953728;28;20199;-66
2021/12/27 05:41:58;;;;;;;1999.90;999.90;;;5.30;99.90;;;;;;4953633;28;20199;-66
2021/12/27 05:44:24;;;;;;;1999.90;999.90;;;5.40;99.90;;;;;;4953445;28;20407;-65
2021/12/27 05:46:50;;;;;;;1999.90;999.90;;;5.40;99.90;;;;;;4953638;29;20214;-66
2021/12/27 05:49:16;;;;;;;1999.90;999.90;;;5.40;99.90;;;;;;4953608;28;20171;-65
2021/12/27 05:51:43;;;;;;;1999.90;999.90;;;5.40;99.90;;;;;;4953396;28;20191;-66
2021/12/27 05:54:10;;;;;;;1999.90;999.90;;;5.40;99.90;;;;;;4953405;28;20843;-65
2021/12/27 05:56:35;;;;;;;1999.90;999.90;;;5.40;99.90;;;;;;4953449;28;20425;-66
2021/12/27 05:59:01;;;;;;;1999.90;999.90;;;5.50;99.90;;;;;;4953538;28;20406;-66
2021/12/27 06:01:27;;;;;;;1999.90;999.90;;;5.60;99.90;;;;;;4953305;28;20190;-65
2021/12/27 06:03:55;;;;;;;1999.90;999.90;;;5.60;99.90;;;;;;4953394;29;20233;-66
2021/12/27 06:06:20;;;;;;;1999.90;999.90;;;5.50;99.90;;;;;;4953022;28;20197;-66
2021/12/27 06:08:46;;;;;;;1999.90;999.90;;;5.60;99.90;;;;;;4953364;29;20411;-65
2021/12/27 06:11:12;;;;;;;1999.90;999.90;;;5.50;99.90;;;;;;4953046;28;20199;-65
2021/12/27 06:13:37;;;;;;;1999.90;999.90;;;5.60;99.90;;;;;;4953325;29;20179;-65
2021/12/27 06:16:03;;;;;;;1999.90;999.90;;;5.60;99.90;;;;;;4952930;29;20215;-66
2021/12/27 06:18:29;;;;;;;1999.90;999.90;;;5.60;99.90;;;;;;4953289;28;20538;-66
2021/12/27 06:20:54;;;;;;;1999.90;999.90;;;5.60;99.90;;;;;;4953036;28;20262;-66
2021/12/27 06:23:20;;;;;;;1999.90;999.90;;;5.50;99.90;;;;;;4953085;29;20321;-66
2021/12/27 06:25:46;;;;;;;1999.90;999.90;;;5.60;99.90;;;;;;4952286;28;20569;-65
2021/12/27 06:28:12;;;;;;;1999.90;999.90;;;5.50;99.90;;;;;;4952233;29;20206;-65
2021/12/27 06:30:37;;;;;;;1999.90;999.90;;;5.60;99.90;;;;;;4953044;29;20217;-66
2021/12/27 06:33:06;;;;;;;1999.90;999.90;;;5.50;99.90;;;;;;4952928;28;20418;-65
2021/12/27 06:35:33;;;;;;;1999.90;999.90;;;5.40;99.90;;;;;;4952661;28;20190;-65
2021/12/27 06:37:59;;;;;;;1999.90;999.90;;;5.30;99.90;;;;;;4952890;28;20443;-66
2021/12/27 06:40:24;;;;;;;1999.90;999.90;;;5.20;99.90;;;;;;4952802;29;20804;-65
2021/12/27 06:42:50;;;;;;;1999.90;999.90;;;5.20;99.90;;;;;;4952745;28;20480;-65
2021/12/27 06:45:16;;;;;;;1999.90;999.90;;;5.30;99.90;;;;;;4952354;28;20220;-65
2021/12/27 06:47:42;;;;;;;1999.90;999.90;;;5.40;99.90;;;;;;4952765;28;20225;-66
2021/12/27 06:50:09;;;;;;;1999.90;999.90;;;5.40;99.90;;;;;;4952670;29;20411;-66
2021/12/27 06:52:35;;;;;;;1999.90;999.90;;;5.40;99.90;;;;;;4952616;28;20669;-66
2021/12/27 06:55:01;;;;;;;1999.90;999.90;;;5.30;99.90;;;;;;4952233;29;20407;-66
2021/12/27 06:57:26;;;;;;;1999.90;999.90;;;5.20;99.90;;;;;;4952542;29;20415;-65
2021/12/27 06:59:52;;;;;;;1999.90;999.90;;;5.30;99.90;;;;;;4952523;29;20410;-64
2021/12/27 07:02:18;;;;;;;1999.90;999.90;;;5.30;99.90;;;;;;4952501;28;20202;-66
2021/12/27 07:04:44;;;;;;;1999.90;999.90;;;5.20;99.90;;;;;;4952156;29;20175;-66
2021/12/27 07:07:09;;;;;;;1999.90;999.90;;;5.30;99.90;;;;;;4952569;29;20562;-66
2021/12/27 07:09:35;;;;;;;1999.90;999.90;;;5.30;99.90;;;;;;4952503;29;20182;-65
2021/12/27 07:12:00;;;;;;;1999.90;999.90;;;5.30;99.90;;;;;;4952279;28;20684;-65
2021/12/27 07:14:26;;;;;;;1999.90;999.90;;;5.30;99.90;;;;;;4952084;29;20171;-65
2021/12/27 07:16:52;;;;;;;1999.90;999.90;;;5.30;99.90;;;;;;4952316;29;20171;-66
2021/12/27 07:19:17;;;;;;;1999.90;999.90;;;5.30;99.90;;;;;;4952194;29;20175;-65
2021/12/27 07:21:43;;;;;;;1999.90;999.90;;;5.30;99.90;;;;;;4952326;28;20194;-65
2021/12/27 07:24:09;;;;;;;1999.90;999.90;;;5.20;99.90;;;;;;4951969;29;20171;-66
2021/12/27 07:26:34;;;;;;;1999.90;999.90;;;5.20;99.90;;;;;;4952078;29;20195;-65
2021/12/27 07:29:00;;;;;;;1999.90;999.90;;;5.10;99.90;;;;;;4952181;29;20685;-66
2021/12/27 07:31:26;;;;;;;1999.90;999.90;;;5.00;99.90;;;;;;4952286;28;20191;-65
2021/12/27 07:33:52;;;;;;;1999.90;999.90;;;5.00;99.90;;;;;;4952016;28;20164;-66
2021/12/27 07:36:18;;;;;;;1999.90;999.90;;;5.00;99.90;;;;;;4951985;28;20179;-65
2021/12/27 07:38:43;;;;;;;1999.90;999.90;;;5.00;99.90;;;;;;4951493;28;20943;-65
2021/12/27 07:41:10;;;;;;;1999.90;999.90;;;4.90;99.90;;;;;;4951846;28;20467;-66
2021/12/27 07:43:35;;;;;;;1999.90;999.90;;;4.90;99.90;;;;;;4951878;28;20175;-66
2021/12/27 07:46:01;;;;;;;1999.90;999.90;;;5.00;99.90;;;;;;4951703;28;20507;-66
2021/12/27 07:48:27;;;;;;;1999.90;999.90;;;5.00;99.90;;;;;;4951707;28;20237;-66
2021/12/27 07:50:52;;;;;;;1999.90;999.90;;;5.10;99.90;;;;;;4951927;28;20430;-66
2021/12/27 07:53:18;;;;;;;1999.90;999.90;;;5.10;99.90;;;;;;4951661;29;20168;-65
2021/12/27 07:55:44;;;;;;;1999.90;999.90;;;5.20;99.90;;;;;;4951536;28;20551;-66
2021/12/27 07:58:09;;;;;;;1999.90;999.90;;;5.20;99.90;;;;;;4951716;29;20652;-65
2021/12/27 08:00:35;;;;;;;1999.90;999.90;;;5.20;99.90;;;;;;4951704;29;20783;-66
2021/12/27 08:03:01;;;;;;;1999.90;999.90;;;5.20;99.90;;;;;;4951515;28;20691;-66
2021/12/27 08:05:27;;;;;;;1999.90;999.90;;;5.20;99.90;;;;;;4951355;29;20672;-65
2021/12/27 08:07:53;;;;;;;1999.90;999.90;;;5.30;99.90;;;;;;4951587;28;20431;-66
2021/12/27 08:10:19;;;;;;;1999.90;999.90;;;5.40;99.90;;;;;;4951530;29;20458;-65
2021/12/27 08:12:45;;;;;;;1999.90;999.90;;;5.40;99.90;;;;;;4951344;28;20575;-65
2021/12/27 08:15:12;;;;;;;1999.90;999.90;;;5.40;99.90;;;;;;4951220;29;20775;-65
2021/12/27 08:17:38;;;;;;;1999.90;999.90;;;5.50;99.90;;;;;;4951375;28;20411;-65
2021/12/27 08:20:05;;;;;;;1999.90;999.90;;;5.50;99.90;;;;;;4951444;28;20407;-65
2021/12/27 08:22:31;;;;;;;1999.90;999.90;;;5.50;99.90;;;;;;4951152;28;20437;-65
2021/12/27 08:24:57;;;;;;;1999.90;999.90;;;5.60;99.90;;;;;;4951335;28;20510;-65
2021/12/27 08:27:26;;;;;;;1999.90;999.90;;;5.60;99.90;;;;;;4951170;29;20537;-65
2021/12/27 08:29:51;;;;;;;1999.90;999.90;;;5.60;99.90;;;;;;4951183;28;20407;-66
2021/12/27 08:32:18;;;;;;;1999.90;999.90;;;5.70;99.90;;;;;;4951169;28;20526;-65
2021/12/27 08:34:44;;;;;;;1999.90;999.90;;;5.70;99.90;;;;;;4950906;28;20175;-66
2021/12/27 08:37:11;;;;;;;1999.90;999.90;;;5.70;99.90;;;;;;4951328;28;20786;-66
2021/12/27 08:39:38;;;;;;;1999.90;999.90;;;5.70;99.90;;;;;;4951231;28;20420;-66
2021/12/27 08:42:07;;;;;;;1999.90;999.90;;;5.70;99.90;;;;;;4951127;28;20496;-65
2021/12/27 08:44:34;;;;;;;1999.90;999.90;;;5.80;99.90;;;;;;4950787;28;20480;-65
2021/12/27 08:46:59;;;;;;;1999.90;999.90;;;5.70;99.90;;;;;;4951021;28;20535;-65
2021/12/27 08:49:25;;;;;;;1999.90;999.90;;;5.70;99.90;;;;;;4951106;29;20407;-64
2021/12/27 08:51:51;;;;;;;1999.90;999.90;;;5.80;99.90;;;;;;4954509;28;20244;-66
2021/12/27 08:54:17;;;;;;;1999.90;999.90;;;5.70;99.90;;;;;;4954225;28;20590;-66
2021/12/27 08:56:42;;;;;;;1999.90;999.90;;;5.90;99.90;;;;;;4954330;29;20442;-65
2021/12/27 08:59:09;;;;;;;1999.90;999.90;;;5.90;99.90;;;;;;4954335;29;20608;-66
2021/12/27 09:01:34;;;;;;;1999.90;999.90;;;5.90;99.90;;;;;;4954251;28;20226;-66
2021/12/27 09:04:00;;;;;;;1999.90;999.90;;;6.00;99.90;;;;;;4954024;28;20439;-64
2021/12/27 09:06:26;;;;;;;1999.90;999.90;;;6.00;99.90;;;;;;4954088;29;20198;-65
2021/12/27 09:08:51;;;;;;;1999.90;999.90;;;6.10;99.90;;;;;;4954190;29;20167;-64
2021/12/27 09:11:17;;;;;;;1999.90;999.90;;;6.00;99.90;;;;;;4953603;28;20258;-65
2021/12/27 09:13:43;;;;;;;1999.90;999.90;;;6.10;99.90;;;;;;4952788;28;20673;-66
2021/12/27 09:16:10;;;;;;;1999.90;999.90;;;6.10;99.90;;;;;;4952628;29;20175;-66
2021/12/27 09:18:36;;;;;;;1999.90;999.90;;;6.20;99.90;;;;;;4952972;28;20557;-65
2021/12/27 09:21:03;;;;;;;1999.90;999.90;;;6.20;99.90;;;;;;4952630;28;20484;-65
2021/12/27 09:23:30;;;;;;;1999.90;999.90;;;6.20;99.90;;;;;;4952708;28;20171;-65
2021/12/27 09:25:55;;;;;;;1999.90;999.90;;;6.30;99.90;;;;;;4959078;28;20865;-66
2021/12/27 09:28:21;;;;;;;1999.90;999.90;;;6.40;99.90;;;;;;4971731;28;20398;-66
2021/12/27 09:30:47;;;;;;;1999.90;999.90;;;6.40;99.90;;;;;;4971781;28;20174;-65
2021/12/27 09:33:12;;;;;;;1999.90;999.90;;;6.40;99.90;;;;;;4971863;28;20300;-66
2021/12/27 09:35:39;;;;;;;1999.90;999.90;;;6.40;99.90;;;;;;4971487;28;20267;-66
2021/12/27 09:38:05;;;;;;;1999.90;999.90;;;6.40;99.90;;;;;;4971844;28;20667;-65
2021/12/27 09:40:30;;;;;;;1999.90;999.90;;;6.40;99.90;;;;;;4971817;28;20406;-67
2021/12/27 09:42:56;;;;;;;1999.90;999.90;;;6.50;99.90;;;;;;4972131;28;20198;-67
2021/12/27 09:45:23;;;;;;;1999.90;999.90;;;6.50;99.90;;;;;;4971384;28;20174;-67
2021/12/27 09:47:51;;;;;;;1999.90;999.90;;;6.50;99.90;;;;;;4971968;28;20489;-68
2021/12/27 09:50:25;;;;;;;1999.90;999.90;;;6.60;99.90;;;;;;4959308;28;20434;-67
2021/12/27 09:52:50;;;;;;;1999.90;999.90;;;6.60;99.90;;;;;;4949102;28;20427;-66
2021/12/27 09:55:16;;;;;;;1999.90;999.90;;;6.70;99.90;;;;;;4947352;28;20644;-69
2021/12/27 09:57:42;;;;;;;1999.90;999.90;;;6.80;99.90;;;;;;4948676;28;20190;-68
2021/12/27 10:00:09;;;;;;;1999.90;999.90;;;6.90;99.90;;;;;;4948273;28;20426;-67
2021/12/27 10:02:37;;;;;;;1999.90;999.90;;;7.00;99.90;;;;;;4947323;28;20500;-67
2021/12/27 10:05:04;;;;;;;1999.90;999.90;;;7.00;99.90;;;;;;4948415;28;20966;-68
2021/12/27 10:07:29;;;;;;;1999.90;999.90;;;7.00;99.90;;;;;;4948091;28;20462;-68
2021/12/27 10:10:00;;;;;;;1999.90;999.90;;;7.10;99.90;;;;;;4948044;29;20811;-67
2021/12/27 10:12:27;;;;;;;1999.90;999.90;;;7.00;99.90;;;;;;4911419;28;1090984;-68
2021/12/27 10:15:07;;;;;;;1999.90;999.90;;;7.00;99.90;;;;;;4949045;28;20168;-69
2021/12/27 10:17:37;;;;;;;1999.90;999.90;;;7.10;99.90;;;;;;4945240;29;20425;-67
2021/12/27 10:20:21;;;;;;;1999.90;999.90;;;7.10;99.90;;;;;;4947761;28;20803;-67
2021/12/27 10:22:53;;;;;;;1999.90;999.90;;;7.20;99.90;;;;;;4947228;28;20443;-66
2021/12/27 10:25:27;;;;;;;1999.90;999.90;;;7.30;99.90;;;;;;4947338;28;20488;-66
2021/12/27 10:27:55;;;;;;;1999.90;999.90;;;7.30;99.90;;;;;;4947477;28;20462;-66
2021/12/27 10:30:30;;;;;;;1999.90;999.90;;;7.40;99.90;;;;;;4947039;28;20441;-66
2021/12/27 10:33:15;;;;;;;1999.90;999.90;;;7.60;99.90;;;;;;4945212;28;20456;-67
2021/12/27 10:35:49;;;;;;;1999.90;999.90;;;7.70;99.90;;;;;;4947285;28;20811;-66
2021/12/27 10:38:24;;;;;;;1999.90;999.90;;;7.80;99.90;;;;;;4946832;28;20418;-67
2021/12/27 10:41:09;;;;;;;1999.90;999.90;;;7.80;99.90;;;;;;4946834;28;20417;-66
2021/12/27 10:43:41;;;;;;;1999.90;999.90;;;7.80;99.90;;;;;;4947069;28;20427;-67
2021/12/27 10:46:18;;;;;;;1999.90;999.90;;;7.80;99.90;;;;;;4946445;28;20532;-66
2021/12/27 10:48:57;;;;;;;1999.90;999.90;;;7.80;99.90;;;;;;4947293;28;20426;-66
2021/12/27 10:51:24;;;;;;;1999.90;999.90;;;7.90;99.90;;;;;;4946800;28;20845;-66
2021/12/27 10:53:52;;;;;;;1999.90;999.90;;;7.90;99.90;;;;;;4946337;28;20426;-66
2021/12/27 10:56:23;;;;;;;1999.90;999.90;;;8.00;99.90;;;;;;4947056;28;20423;-66
2021/12/27 10:58:57;;;;;;;1999.90;999.90;;;8.10;99.90;;;;;;4947372;28;20438;-66
2021/12/27 11:01:26;;;;;;;1999.90;999.90;;;8.40;99.90;;;;;;4946272;28;21022;-66
2021/12/27 11:03:55;;;;;;;1999.90;999.90;;;8.50;99.90;;;;;;4946697;28;20423;-67
2021/12/27 11:06:33;;;;;;;1999.90;999.90;;;8.70;99.90;;;;;;4946795;28;20462;-66
2021/12/27 11:09:00;;;;;;;1999.90;999.90;;;9.00;99.90;;;;;;4947034;28;20417;-65
2021/12/27 11:11:27;;;;;;;1999.90;999.90;;;9.20;99.90;;;;;;4946359;28;20447;-66
2021/12/27 11:13:55;;;;;;;1999.90;999.90;;;9.40;99.90;;;;;;4946879;28;20417;-66
2021/12/27 11:16:21;;;;;;;1999.90;999.90;;;9.40;99.90;;;;;;4981723;28;20425;-68
2021/12/27 11:18:47;;;;;;;1999.90;999.90;;;9.50;99.90;;;;;;4966980;28;20421;-65
2021/12/27 11:21:19;;;;;;;1999.90;999.90;;;9.50;99.90;;;;;;4964317;28;20995;-67
2021/12/27 11:23:49;;;;;;;1999.90;999.90;;;9.60;99.90;;;;;;4961362;28;20181;-65
2021/12/27 11:26:24;;;;;;;1999.90;999.90;;;9.70;99.90;;;;;;4969643;28;20476;-66
2021/12/27 11:28:49;;;;;;;1999.90;999.90;;;9.90;99.90;;;;;;4966799;28;20416;-65
2021/12/27 11:31:28;;;;;;;1999.90;999.90;;;10.00;99.90;;;;;;4964214;28;20979;-65
2021/12/27 11:34:01;;;;;;;1999.90;999.90;;;10.00;99.90;;;;;;4967075;28;20202;-66
2021/12/27 11:36:29;;;;;;;1999.90;999.90;;;10.10;99.90;;;;;;4963421;28;20415;-66
2021/12/27 11:38:55;;;;;;;1999.90;999.90;;;10.00;99.90;;;;;;4968564;28;20415;-68
2021/12/27 11:41:24;;;;;;;1999.90;999.90;;;10.00;99.90;;;;;;4968153;28;20453;-66
2021/12/27 11:43:56;;;;;;;1999.90;999.90;;;10.00;99.90;;;;;;4968280;28;20411;-65
2021/12/27 11:46:24;;;;;;;1999.90;999.90;;;10.00;99.90;;;;;;4967378;28;20935;-66
2021/12/27 11:48:52;;;;;;;1999.90;999.90;;;10.00;99.90;;;;;;4962089;28;20420;-66
2021/12/27 11:51:31;;;;;;;1999.90;999.90;;;10.10;99.90;;;;;;4963965;28;20435;-66
2021/12/27 11:53:59;;;;;;;1999.90;999.90;;;10.10;99.90;;;;;;4966801;28;20420;-67
2021/12/27 11:56:44;;;;;;;1999.90;999.90;;;10.10;99.90;;;;;;4967766;28;20412;-66
2021/12/27 11:59:22;;;;;;;1999.90;999.90;;;10.00;99.90;;;;;;4967930;28;20783;-66
2021/12/27 12:01:49;;;;;;;1999.90;999.90;;;10.00;99.90;;;;;;4967981;28;20444;-66
2021/12/27 12:04:39;;;;;;;1999.90;999.90;;;10.00;99.90;;;;;;4967933;28;20500;-65
2021/12/27 12:07:07;;;;;;;1999.90;999.90;;;10.00;99.90;;;;;;4969388;28;20554;-67
2021/12/27 12:09:42;;;;;;;1999.90;999.90;;;10.00;99.90;;;;;;4968389;28;20434;-66
2021/12/27 12:12:12;;;;;;;1999.90;999.90;;;9.90;99.90;;;;;;4967742;28;20515;-66
2021/12/27 12:14:38;;;;;;;1999.90;999.90;;;9.90;99.90;;;;;;4967510;28;20422;-66
2021/12/27 12:17:07;;;;;;;1999.90;999.90;;;9.90;99.90;;;;;;4967515;28;20404;-66